sensor_id;sensor_type;location;lat;lon;timestamp;P1;durP1;ratioP1;P2;durP2;ratioP2
1479;SDS011;732;51.698;4.886;2023-08-17T00:02:05;7.53;;;4.60;;
1479;SDS011;732;51.698;4.886;2023-08-17T00:04:35;5.53;;;3.30;;
1479;SDS011;732;51.698;4.886;2023-08-17T00:07:03;6.73;;;3.57;;
1479;SDS011;732;51.698;4.886;2023-08-17T00:09:32;6.40;;;3.50;;
1479;SDS011;732;51.698;4.886;2023-08-17T00:12:01;5.97;;;3.90;;
1479;SDS011;732;51.698;4.886;2023-08-17T00:14:31;9.03;;;3.60;;
1479;SDS011;732;51.698;4.886;2023-08-17T00:16:59;5.87;;;3.67;;
1479;SDS011;732;51.698;4.886;2023-08-17T00:19:29;12.73;;;3.70;;
1479;SDS011;732;51.698;4.886;2023-08-17T00:21:59;5.53;;;3.40;;
1479;SDS011;732;51.698;4.886;2023-08-17T00:24:28;6.17;;;3.43;;
1479;SDS011;732;51.698;4.886;2023-08-17T00:26:56;11.53;;;3.63;;
1479;SDS011;732;51.698;4.886;2023-08-17T00:29:24;9.30;;;3.27;;
1479;SDS011;732;51.698;4.886;2023-08-17T00:31:55;5.07;;;3.40;;
1479;SDS011;732;51.698;4.886;2023-08-17T00:34:23;6.73;;;3.37;;
1479;SDS011;732;51.698;4.886;2023-08-17T00:36:52;5.73;;;3.47;;
1479;SDS011;732;51.698;4.886;2023-08-17T00:39:21;9.07;;;3.77;;
1479;SDS011;732;51.698;4.886;2023-08-17T00:41:50;6.67;;;3.20;;
1479;SDS011;732;51.698;4.886;2023-08-17T00:44:18;5.03;;;3.40;;
1479;SDS011;732;51.698;4.886;2023-08-17T00:46:47;9.47;;;3.20;;
1479;SDS011;732;51.698;4.886;2023-08-17T00:49:15;7.97;;;3.70;;
1479;SDS011;732;51.698;4.886;2023-08-17T00:51:43;6.93;;;3.50;;
1479;SDS011;732;51.698;4.886;2023-08-17T00:54:13;6.93;;;3.33;;
1479;SDS011;732;51.698;4.886;2023-08-17T00:56:44;7.70;;;3.47;;
1479;SDS011;732;51.698;4.886;2023-08-17T00:59:13;13.47;;;3.57;;
1479;SDS011;732;51.698;4.886;2023-08-17T01:01:42;6.43;;;3.40;;
1479;SDS011;732;51.698;4.886;2023-08-17T01:04:10;15.90;;;3.77;;
1479;SDS011;732;51.698;4.886;2023-08-17T01:06:38;6.83;;;3.70;;
1479;SDS011;732;51.698;4.886;2023-08-17T01:09:07;5.83;;;2.80;;
1479;SDS011;732;51.698;4.886;2023-08-17T01:11:37;7.90;;;4.00;;
1479;SDS011;732;51.698;4.886;2023-08-17T01:14:17;6.10;;;3.00;;
1479;SDS011;732;51.698;4.886;2023-08-17T01:16:53;8.60;;;3.33;;
1479;SDS011;732;51.698;4.886;2023-08-17T01:19:31;5.73;;;3.43;;
1479;SDS011;732;51.698;4.886;2023-08-17T01:22:03;9.43;;;3.57;;
1479;SDS011;732;51.698;4.886;2023-08-17T01:24:34;5.03;;;3.67;;
1479;SDS011;732;51.698;4.886;2023-08-17T01:27:02;6.77;;;3.57;;
1479;SDS011;732;51.698;4.886;2023-08-17T01:29:31;8.53;;;3.50;;
1479;SDS011;732;51.698;4.886;2023-08-17T01:32:00;4.83;;;3.47;;
1479;SDS011;732;51.698;4.886;2023-08-17T01:34:38;5.90;;;3.73;;
1479;SDS011;732;51.698;4.886;2023-08-17T01:37:13;8.83;;;3.50;;
1479;SDS011;732;51.698;4.886;2023-08-17T01:39:48;8.60;;;3.87;;
1479;SDS011;732;51.698;4.886;2023-08-17T01:42:22;7.13;;;3.53;;
1479;SDS011;732;51.698;4.886;2023-08-17T01:44:53;8.83;;;3.10;;
1479;SDS011;732;51.698;4.886;2023-08-17T01:47:22;6.67;;;3.47;;
1479;SDS011;732;51.698;4.886;2023-08-17T01:49:52;5.40;;;3.03;;
1479;SDS011;732;51.698;4.886;2023-08-17T01:52:22;6.47;;;2.93;;
1479;SDS011;732;51.698;4.886;2023-08-17T01:54:53;4.93;;;3.03;;
1479;SDS011;732;51.698;4.886;2023-08-17T01:57:21;8.67;;;3.50;;
1479;SDS011;732;51.698;4.886;2023-08-17T01:59:50;7.90;;;3.13;;
1479;SDS011;732;51.698;4.886;2023-08-17T02:02:18;6.13;;;2.90;;
1479;SDS011;732;51.698;4.886;2023-08-17T02:04:48;4.83;;;3.27;;
1479;SDS011;732;51.698;4.886;2023-08-17T02:07:16;5.30;;;3.37;;
1479;SDS011;732;51.698;4.886;2023-08-17T02:09:48;4.80;;;2.80;;
1479;SDS011;732;51.698;4.886;2023-08-17T02:12:17;8.10;;;3.50;;
1479;SDS011;732;51.698;4.886;2023-08-17T02:14:46;10.10;;;3.20;;
1479;SDS011;732;51.698;4.886;2023-08-17T02:17:14;8.00;;;4.00;;
1479;SDS011;732;51.698;4.886;2023-08-17T02:19:45;6.17;;;3.33;;
1479;SDS011;732;51.698;4.886;2023-08-17T02:22:14;4.90;;;3.40;;
1479;SDS011;732;51.698;4.886;2023-08-17T02:24:42;4.87;;;2.90;;
1479;SDS011;732;51.698;4.886;2023-08-17T02:27:12;5.47;;;3.00;;
1479;SDS011;732;51.698;4.886;2023-08-17T02:29:41;6.80;;;3.00;;
1479;SDS011;732;51.698;4.886;2023-08-17T02:32:09;6.13;;;3.40;;
1479;SDS011;732;51.698;4.886;2023-08-17T02:34:38;5.33;;;3.43;;
1479;SDS011;732;51.698;4.886;2023-08-17T02:37:06;8.53;;;3.50;;
1479;SDS011;732;51.698;4.886;2023-08-17T02:39:35;9.40;;;3.60;;
1479;SDS011;732;51.698;4.886;2023-08-17T02:42:03;6.97;;;3.50;;
1479;SDS011;732;51.698;4.886;2023-08-17T02:44:32;5.00;;;2.97;;
1479;SDS011;732;51.698;4.886;2023-08-17T02:47:03;7.27;;;3.00;;
1479;SDS011;732;51.698;4.886;2023-08-17T02:49:32;10.00;;;3.27;;
1479;SDS011;732;51.698;4.886;2023-08-17T02:52:00;8.47;;;3.50;;
1479;SDS011;732;51.698;4.886;2023-08-17T02:54:28;4.13;;;3.30;;
1479;SDS011;732;51.698;4.886;2023-08-17T02:56:57;4.47;;;3.30;;
1479;SDS011;732;51.698;4.886;2023-08-17T02:59:26;5.23;;;3.37;;
1479;SDS011;732;51.698;4.886;2023-08-17T03:01:55;8.40;;;3.80;;
1479;SDS011;732;51.698;4.886;2023-08-17T03:04:25;5.07;;;3.30;;
1479;SDS011;732;51.698;4.886;2023-08-17T03:06:55;7.37;;;3.80;;
1479;SDS011;732;51.698;4.886;2023-08-17T03:09:23;6.97;;;2.93;;
1479;SDS011;732;51.698;4.886;2023-08-17T03:11:51;5.20;;;3.03;;
1479;SDS011;732;51.698;4.886;2023-08-17T03:14:20;6.53;;;3.17;;
1479;SDS011;732;51.698;4.886;2023-08-17T03:16:48;4.30;;;2.60;;
1479;SDS011;732;51.698;4.886;2023-08-17T03:19:16;7.23;;;2.93;;
1479;SDS011;732;51.698;4.886;2023-08-17T03:21:46;6.60;;;3.27;;
1479;SDS011;732;51.698;4.886;2023-08-17T03:24:14;7.60;;;3.50;;
1479;SDS011;732;51.698;4.886;2023-08-17T03:26:42;7.40;;;3.13;;
1479;SDS011;732;51.698;4.886;2023-08-17T03:29:11;5.93;;;3.00;;
1479;SDS011;732;51.698;4.886;2023-08-17T03:31:39;5.97;;;3.30;;
1479;SDS011;732;51.698;4.886;2023-08-17T03:34:08;6.00;;;3.13;;
1479;SDS011;732;51.698;4.886;2023-08-17T03:36:37;4.57;;;2.80;;
1479;SDS011;732;51.698;4.886;2023-08-17T03:39:06;5.50;;;2.83;;
1479;SDS011;732;51.698;4.886;2023-08-17T03:41:36;5.37;;;3.23;;
1479;SDS011;732;51.698;4.886;2023-08-17T03:44:05;4.50;;;3.23;;
1479;SDS011;732;51.698;4.886;2023-08-17T03:46:33;5.50;;;3.17;;
1479;SDS011;732;51.698;4.886;2023-08-17T03:49:03;5.40;;;3.30;;
1479;SDS011;732;51.698;4.886;2023-08-17T03:51:31;5.97;;;3.67;;
1479;SDS011;732;51.698;4.886;2023-08-17T03:53:59;4.53;;;3.30;;
1479;SDS011;732;51.698;4.886;2023-08-17T03:56:29;4.33;;;2.87;;
1479;SDS011;732;51.698;4.886;2023-08-17T03:58:58;6.70;;;3.60;;
1479;SDS011;732;51.698;4.886;2023-08-17T04:01:26;7.63;;;3.30;;
1479;SDS011;732;51.698;4.886;2023-08-17T04:03:55;11.40;;;3.50;;
1479;SDS011;732;51.698;4.886;2023-08-17T04:06:23;6.27;;;3.00;;
1479;SDS011;732;51.698;4.886;2023-08-17T04:08:51;6.43;;;3.00;;
1479;SDS011;732;51.698;4.886;2023-08-17T04:11:20;8.90;;;4.27;;
1479;SDS011;732;51.698;4.886;2023-08-17T04:13:50;4.93;;;3.10;;
1479;SDS011;732;51.698;4.886;2023-08-17T04:16:19;6.90;;;3.43;;
1479;SDS011;732;51.698;4.886;2023-08-17T04:18:48;7.07;;;3.87;;
1479;SDS011;732;51.698;4.886;2023-08-17T04:21:16;7.43;;;3.33;;
1479;SDS011;732;51.698;4.886;2023-08-17T04:23:44;5.80;;;3.67;;
1479;SDS011;732;51.698;4.886;2023-08-17T04:26:13;5.23;;;2.87;;
1479;SDS011;732;51.698;4.886;2023-08-17T04:28:41;6.53;;;3.40;;
1479;SDS011;732;51.698;4.886;2023-08-17T04:31:11;7.37;;;3.77;;
1479;SDS011;732;51.698;4.886;2023-08-17T04:33:40;7.37;;;3.57;;
1479;SDS011;732;51.698;4.886;2023-08-17T04:36:08;5.23;;;3.67;;
1479;SDS011;732;51.698;4.886;2023-08-17T04:38:37;5.73;;;3.40;;
1479;SDS011;732;51.698;4.886;2023-08-17T04:41:05;7.00;;;3.83;;
1479;SDS011;732;51.698;4.886;2023-08-17T04:43:34;5.60;;;3.27;;
1479;SDS011;732;51.698;4.886;2023-08-17T04:46:02;9.20;;;3.60;;
1479;SDS011;732;51.698;4.886;2023-08-17T04:48:32;4.20;;;2.80;;
1479;SDS011;732;51.698;4.886;2023-08-17T04:51:00;4.10;;;2.90;;
1479;SDS011;732;51.698;4.886;2023-08-17T04:53:29;6.40;;;3.50;;
1479;SDS011;732;51.698;4.886;2023-08-17T04:55:58;6.90;;;2.90;;
1479;SDS011;732;51.698;4.886;2023-08-17T04:58:27;5.93;;;3.53;;
1479;SDS011;732;51.698;4.886;2023-08-17T05:00:56;7.57;;;3.30;;
1479;SDS011;732;51.698;4.886;2023-08-17T05:03:26;4.90;;;3.87;;
1479;SDS011;732;51.698;4.886;2023-08-17T05:06:01;7.50;;;3.30;;
1479;SDS011;732;51.698;4.886;2023-08-17T05:08:31;6.83;;;2.93;;
1479;SDS011;732;51.698;4.886;2023-08-17T05:11:00;6.80;;;3.40;;
1479;SDS011;732;51.698;4.886;2023-08-17T05:13:28;5.83;;;3.30;;
1479;SDS011;732;51.698;4.886;2023-08-17T05:16:01;8.17;;;3.33;;
1479;SDS011;732;51.698;4.886;2023-08-17T05:18:30;5.90;;;3.60;;
1479;SDS011;732;51.698;4.886;2023-08-17T05:20:59;8.67;;;3.33;;
1479;SDS011;732;51.698;4.886;2023-08-17T05:23:30;8.63;;;3.43;;
1479;SDS011;732;51.698;4.886;2023-08-17T05:25:59;7.27;;;3.67;;
1479;SDS011;732;51.698;4.886;2023-08-17T05:28:28;7.77;;;3.93;;
1479;SDS011;732;51.698;4.886;2023-08-17T05:31:02;7.80;;;4.00;;
1479;SDS011;732;51.698;4.886;2023-08-17T05:33:35;9.20;;;3.13;;
1479;SDS011;732;51.698;4.886;2023-08-17T05:36:05;6.17;;;3.20;;
1479;SDS011;732;51.698;4.886;2023-08-17T05:38:33;5.90;;;3.37;;
1479;SDS011;732;51.698;4.886;2023-08-17T05:41:01;9.50;;;3.73;;
1479;SDS011;732;51.698;4.886;2023-08-17T05:43:31;5.87;;;3.10;;
1479;SDS011;732;51.698;4.886;2023-08-17T05:46:00;7.40;;;3.47;;
1479;SDS011;732;51.698;4.886;2023-08-17T05:48:29;11.23;;;3.73;;
1479;SDS011;732;51.698;4.886;2023-08-17T05:50:57;9.33;;;3.57;;
1479;SDS011;732;51.698;4.886;2023-08-17T05:53:27;6.40;;;3.57;;
1479;SDS011;732;51.698;4.886;2023-08-17T05:55:56;8.20;;;3.97;;
1479;SDS011;732;51.698;4.886;2023-08-17T05:58:24;7.17;;;3.90;;
1479;SDS011;732;51.698;4.886;2023-08-17T06:00:52;5.87;;;3.40;;
1479;SDS011;732;51.698;4.886;2023-08-17T06:03:21;6.43;;;3.33;;
1479;SDS011;732;51.698;4.886;2023-08-17T06:05:52;7.83;;;3.60;;
1479;SDS011;732;51.698;4.886;2023-08-17T06:08:20;8.63;;;3.60;;
1479;SDS011;732;51.698;4.886;2023-08-17T06:10:50;8.20;;;3.40;;
1479;SDS011;732;51.698;4.886;2023-08-17T06:13:18;9.43;;;4.13;;
1479;SDS011;732;51.698;4.886;2023-08-17T06:15:47;7.53;;;3.87;;
1479;SDS011;732;51.698;4.886;2023-08-17T06:18:15;6.83;;;3.80;;
1479;SDS011;732;51.698;4.886;2023-08-17T06:20:44;7.23;;;3.60;;
1479;SDS011;732;51.698;4.886;2023-08-17T06:23:14;6.87;;;3.80;;
1479;SDS011;732;51.698;4.886;2023-08-17T06:25:42;5.43;;;3.50;;
1479;SDS011;732;51.698;4.886;2023-08-17T06:28:12;6.73;;;3.17;;
1479;SDS011;732;51.698;4.886;2023-08-17T06:30:40;12.37;;;3.53;;
1479;SDS011;732;51.698;4.886;2023-08-17T06:33:08;8.93;;;3.90;;
1479;SDS011;732;51.698;4.886;2023-08-17T06:35:37;7.83;;;3.70;;
1479;SDS011;732;51.698;4.886;2023-08-17T06:38:05;8.00;;;3.40;;
1479;SDS011;732;51.698;4.886;2023-08-17T06:40:34;7.63;;;3.30;;
1479;SDS011;732;51.698;4.886;2023-08-17T06:43:03;9.70;;;3.87;;
1479;SDS011;732;51.698;4.886;2023-08-17T06:45:33;4.80;;;3.43;;
1479;SDS011;732;51.698;4.886;2023-08-17T06:48:02;4.57;;;3.27;;
1479;SDS011;732;51.698;4.886;2023-08-17T06:50:31;5.00;;;3.33;;
1479;SDS011;732;51.698;4.886;2023-08-17T06:53:00;7.00;;;3.50;;
1479;SDS011;732;51.698;4.886;2023-08-17T06:55:31;6.77;;;3.43;;
1479;SDS011;732;51.698;4.886;2023-08-17T06:58:00;7.17;;;3.30;;
1479;SDS011;732;51.698;4.886;2023-08-17T07:00:28;9.60;;;4.00;;
1479;SDS011;732;51.698;4.886;2023-08-17T07:02:58;8.00;;;3.33;;
1479;SDS011;732;51.698;4.886;2023-08-17T07:05:27;11.07;;;3.63;;
1479;SDS011;732;51.698;4.886;2023-08-17T07:07:55;6.60;;;3.53;;
1479;SDS011;732;51.698;4.886;2023-08-17T07:10:24;6.70;;;3.30;;
1479;SDS011;732;51.698;4.886;2023-08-17T07:12:52;7.57;;;3.27;;
1479;SDS011;732;51.698;4.886;2023-08-17T07:15:20;6.27;;;3.57;;
1479;SDS011;732;51.698;4.886;2023-08-17T07:17:49;6.27;;;3.73;;
1479;SDS011;732;51.698;4.886;2023-08-17T07:20:19;5.47;;;3.80;;
1479;SDS011;732;51.698;4.886;2023-08-17T07:22:47;8.13;;;4.03;;
1479;SDS011;732;51.698;4.886;2023-08-17T07:25:16;10.00;;;3.73;;
1479;SDS011;732;51.698;4.886;2023-08-17T07:27:44;7.30;;;3.37;;
1479;SDS011;732;51.698;4.886;2023-08-17T07:30:13;8.67;;;4.53;;
1479;SDS011;732;51.698;4.886;2023-08-17T07:32:41;9.50;;;4.47;;
1479;SDS011;732;51.698;4.886;2023-08-17T07:35:10;8.40;;;3.73;;
1479;SDS011;732;51.698;4.886;2023-08-17T07:37:39;10.87;;;3.97;;
1479;SDS011;732;51.698;4.886;2023-08-17T07:40:11;5.90;;;3.40;;
1479;SDS011;732;51.698;4.886;2023-08-17T07:42:39;7.10;;;4.03;;
1479;SDS011;732;51.698;4.886;2023-08-17T07:45:08;5.93;;;3.67;;
1479;SDS011;732;51.698;4.886;2023-08-17T07:47:37;7.67;;;3.70;;
1479;SDS011;732;51.698;4.886;2023-08-17T07:50:06;8.20;;;4.07;;
1479;SDS011;732;51.698;4.886;2023-08-17T07:52:39;5.13;;;3.20;;
1479;SDS011;732;51.698;4.886;2023-08-17T07:55:07;6.73;;;3.87;;
1479;SDS011;732;51.698;4.886;2023-08-17T07:57:36;7.67;;;3.63;;
1479;SDS011;732;51.698;4.886;2023-08-17T08:00:05;8.43;;;3.70;;
1479;SDS011;732;51.698;4.886;2023-08-17T08:02:34;7.93;;;4.27;;
1479;SDS011;732;51.698;4.886;2023-08-17T08:05:03;7.60;;;3.77;;
1479;SDS011;732;51.698;4.886;2023-08-17T08:07:32;7.37;;;3.87;;
1479;SDS011;732;51.698;4.886;2023-08-17T08:10:02;9.10;;;4.40;;
1479;SDS011;732;51.698;4.886;2023-08-17T08:12:31;8.90;;;3.70;;
1479;SDS011;732;51.698;4.886;2023-08-17T08:14:59;6.63;;;3.63;;
1479;SDS011;732;51.698;4.886;2023-08-17T08:17:28;8.13;;;3.93;;
1479;SDS011;732;51.698;4.886;2023-08-17T08:19:56;9.60;;;4.50;;
1479;SDS011;732;51.698;4.886;2023-08-17T08:22:25;6.70;;;4.50;;
1479;SDS011;732;51.698;4.886;2023-08-17T08:24:53;9.93;;;4.43;;
1479;SDS011;732;51.698;4.886;2023-08-17T08:27:23;6.33;;;3.93;;
1479;SDS011;732;51.698;4.886;2023-08-17T08:29:52;9.60;;;4.40;;
1479;SDS011;732;51.698;4.886;2023-08-17T08:32:20;5.83;;;3.70;;
1479;SDS011;732;51.698;4.886;2023-08-17T08:34:51;8.40;;;3.90;;
1479;SDS011;732;51.698;4.886;2023-08-17T08:37:19;8.10;;;4.40;;
1479;SDS011;732;51.698;4.886;2023-08-17T08:39:48;7.57;;;4.20;;
1479;SDS011;732;51.698;4.886;2023-08-17T08:42:17;8.40;;;4.60;;
1479;SDS011;732;51.698;4.886;2023-08-17T08:44:48;10.13;;;4.80;;
1479;SDS011;732;51.698;4.886;2023-08-17T08:47:17;9.27;;;4.40;;
1479;SDS011;732;51.698;4.886;2023-08-17T08:49:48;4.70;;;3.70;;
1479;SDS011;732;51.698;4.886;2023-08-17T08:52:27;6.37;;;4.20;;
1479;SDS011;732;51.698;4.886;2023-08-17T08:55:11;8.87;;;4.50;;
1479;SDS011;732;51.698;4.886;2023-08-17T08:57:43;9.43;;;4.50;;
1479;SDS011;732;51.698;4.886;2023-08-17T09:00:18;10.47;;;5.10;;
1479;SDS011;732;51.698;4.886;2023-08-17T09:02:48;8.77;;;4.73;;
1479;SDS011;732;51.698;4.886;2023-08-17T09:05:17;6.27;;;4.80;;
1479;SDS011;732;51.698;4.886;2023-08-17T09:07:46;10.30;;;5.17;;
1479;SDS011;732;51.698;4.886;2023-08-17T09:10:16;7.13;;;4.53;;
1479;SDS011;732;51.698;4.886;2023-08-17T09:12:45;7.90;;;5.40;;
1479;SDS011;732;51.698;4.886;2023-08-17T09:15:16;7.77;;;5.00;;
1479;SDS011;732;51.698;4.886;2023-08-17T09:17:45;11.30;;;5.63;;
1479;SDS011;732;51.698;4.886;2023-08-17T09:20:35;10.83;;;5.83;;
1479;SDS011;732;51.698;4.886;2023-08-17T09:23:12;7.70;;;5.17;;
1479;SDS011;732;51.698;4.886;2023-08-17T09:25:43;9.13;;;5.03;;
1479;SDS011;732;51.698;4.886;2023-08-17T09:28:13;9.73;;;5.30;;
1479;SDS011;732;51.698;4.886;2023-08-17T09:30:49;8.80;;;4.90;;
1479;SDS011;732;51.698;4.886;2023-08-17T09:33:23;10.30;;;5.00;;
1479;SDS011;732;51.698;4.886;2023-08-17T09:35:53;6.17;;;4.63;;
1479;SDS011;732;51.698;4.886;2023-08-17T09:38:25;9.80;;;5.20;;
1479;SDS011;732;51.698;4.886;2023-08-17T09:40:54;12.00;;;5.53;;
1479;SDS011;732;51.698;4.886;2023-08-17T09:43:25;9.17;;;4.63;;
1479;SDS011;732;51.698;4.886;2023-08-17T09:45:57;8.37;;;5.13;;
1479;SDS011;732;51.698;4.886;2023-08-17T09:48:27;7.10;;;5.17;;
1479;SDS011;732;51.698;4.886;2023-08-17T09:50:59;5.43;;;4.57;;
1479;SDS011;732;51.698;4.886;2023-08-17T09:53:29;10.37;;;4.50;;
1479;SDS011;732;51.698;4.886;2023-08-17T09:56:03;11.13;;;4.97;;
1479;SDS011;732;51.698;4.886;2023-08-17T09:58:42;6.00;;;4.70;;
1479;SDS011;732;51.698;4.886;2023-08-17T10:01:10;13.13;;;5.87;;
1479;SDS011;732;51.698;4.886;2023-08-17T10:03:43;6.93;;;5.20;;
1479;SDS011;732;51.698;4.886;2023-08-17T10:06:12;7.03;;;5.17;;
1479;SDS011;732;51.698;4.886;2023-08-17T10:08:45;8.13;;;5.00;;
1479;SDS011;732;51.698;4.886;2023-08-17T10:11:18;10.37;;;4.90;;
1479;SDS011;732;51.698;4.886;2023-08-17T10:13:51;10.30;;;5.77;;
1479;SDS011;732;51.698;4.886;2023-08-17T10:16:23;9.80;;;5.20;;
1479;SDS011;732;51.698;4.886;2023-08-17T10:19:01;10.80;;;5.67;;
1479;SDS011;732;51.698;4.886;2023-08-17T10:21:37;11.17;;;4.53;;
1479;SDS011;732;51.698;4.886;2023-08-17T10:24:11;6.40;;;4.87;;
1479;SDS011;732;51.698;4.886;2023-08-17T10:26:40;9.37;;;5.70;;
1479;SDS011;732;51.698;4.886;2023-08-17T10:29:09;8.33;;;5.50;;
1479;SDS011;732;51.698;4.886;2023-08-17T10:31:43;11.53;;;5.80;;
1479;SDS011;732;51.698;4.886;2023-08-17T10:34:14;11.87;;;5.53;;
1479;SDS011;732;51.698;4.886;2023-08-17T10:36:43;7.20;;;5.47;;
1479;SDS011;732;51.698;4.886;2023-08-17T10:39:22;8.20;;;5.50;;
1479;SDS011;732;51.698;4.886;2023-08-17T10:41:55;11.47;;;6.53;;
1479;SDS011;732;51.698;4.886;2023-08-17T10:44:37;10.90;;;6.00;;
1479;SDS011;732;51.698;4.886;2023-08-17T10:47:24;8.57;;;5.67;;
1479;SDS011;732;51.698;4.886;2023-08-17T10:50:03;10.80;;;5.93;;
1479;SDS011;732;51.698;4.886;2023-08-17T10:52:34;10.67;;;6.30;;
1479;SDS011;732;51.698;4.886;2023-08-17T10:55:05;9.63;;;6.23;;
1479;SDS011;732;51.698;4.886;2023-08-17T10:57:36;11.73;;;6.90;;
1479;SDS011;732;51.698;4.886;2023-08-17T11:00:16;8.57;;;5.90;;
1479;SDS011;732;51.698;4.886;2023-08-17T11:02:51;10.53;;;6.47;;
1479;SDS011;732;51.698;4.886;2023-08-17T11:05:42;11.27;;;6.53;;
1479;SDS011;732;51.698;4.886;2023-08-17T11:08:19;10.77;;;6.87;;
1479;SDS011;732;51.698;4.886;2023-08-17T11:11:01;12.80;;;7.70;;
1479;SDS011;732;51.698;4.886;2023-08-17T11:13:31;10.40;;;6.20;;
1479;SDS011;732;51.698;4.886;2023-08-17T11:16:02;17.63;;;6.97;;
1479;SDS011;732;51.698;4.886;2023-08-17T11:18:32;17.23;;;7.30;;
1479;SDS011;732;51.698;4.886;2023-08-17T11:21:03;17.33;;;7.40;;
1479;SDS011;732;51.698;4.886;2023-08-17T11:23:34;19.37;;;7.73;;
1479;SDS011;732;51.698;4.886;2023-08-17T11:26:04;11.93;;;6.97;;
1479;SDS011;732;51.698;4.886;2023-08-17T11:28:34;14.90;;;8.00;;
1479;SDS011;732;51.698;4.886;2023-08-17T11:31:08;12.97;;;7.37;;
1479;SDS011;732;51.698;4.886;2023-08-17T11:33:39;15.30;;;8.30;;
1479;SDS011;732;51.698;4.886;2023-08-17T11:36:09;16.23;;;7.83;;
1479;SDS011;732;51.698;4.886;2023-08-17T11:38:38;13.83;;;8.33;;
1479;SDS011;732;51.698;4.886;2023-08-17T11:41:09;13.27;;;7.60;;
1479;SDS011;732;51.698;4.886;2023-08-17T11:43:41;12.60;;;7.90;;
1479;SDS011;732;51.698;4.886;2023-08-17T11:46:11;16.03;;;7.77;;
1479;SDS011;732;51.698;4.886;2023-08-17T11:48:40;12.90;;;6.87;;
1479;SDS011;732;51.698;4.886;2023-08-17T11:51:09;11.70;;;7.17;;
1479;SDS011;732;51.698;4.886;2023-08-17T11:53:39;16.90;;;8.37;;
1479;SDS011;732;51.698;4.886;2023-08-17T11:56:08;19.03;;;8.80;;
1479;SDS011;732;51.698;4.886;2023-08-17T11:58:40;11.63;;;7.97;;
1479;SDS011;732;51.698;4.886;2023-08-17T12:01:11;12.53;;;8.20;;
1479;SDS011;732;51.698;4.886;2023-08-17T12:03:43;13.10;;;7.90;;
1479;SDS011;732;51.698;4.886;2023-08-17T12:06:15;11.60;;;7.50;;
1479;SDS011;732;51.698;4.886;2023-08-17T12:08:45;13.30;;;7.70;;
1479;SDS011;732;51.698;4.886;2023-08-17T12:11:15;13.67;;;8.20;;
1479;SDS011;732;51.698;4.886;2023-08-17T12:13:48;14.33;;;8.37;;
1479;SDS011;732;51.698;4.886;2023-08-17T12:16:18;11.80;;;7.70;;
1479;SDS011;732;51.698;4.886;2023-08-17T12:18:48;15.17;;;8.30;;
1479;SDS011;732;51.698;4.886;2023-08-17T12:21:20;20.87;;;8.80;;
1479;SDS011;732;51.698;4.886;2023-08-17T12:23:49;14.73;;;9.10;;
1479;SDS011;732;51.698;4.886;2023-08-17T12:26:18;13.10;;;9.07;;
1479;SDS011;732;51.698;4.886;2023-08-17T12:28:47;15.13;;;9.57;;
1479;SDS011;732;51.698;4.886;2023-08-17T12:31:20;14.73;;;9.60;;
1479;SDS011;732;51.698;4.886;2023-08-17T12:33:50;14.33;;;9.73;;
1479;SDS011;732;51.698;4.886;2023-08-17T12:36:20;28.27;;;11.70;;
1479;SDS011;732;51.698;4.886;2023-08-17T12:38:48;14.73;;;9.20;;
1479;SDS011;732;51.698;4.886;2023-08-17T12:41:17;16.07;;;9.10;;
1479;SDS011;732;51.698;4.886;2023-08-17T12:43:46;17.57;;;8.40;;
1479;SDS011;732;51.698;4.886;2023-08-17T12:46:14;16.70;;;9.40;;
1479;SDS011;732;51.698;4.886;2023-08-17T12:48:42;13.90;;;9.30;;
1479;SDS011;732;51.698;4.886;2023-08-17T12:51:11;14.73;;;9.23;;
1479;SDS011;732;51.698;4.886;2023-08-17T12:53:40;10.73;;;7.90;;
1479;SDS011;732;51.698;4.886;2023-08-17T12:56:15;16.03;;;9.50;;
1479;SDS011;732;51.698;4.886;2023-08-17T12:58:44;16.60;;;8.77;;
1479;SDS011;732;51.698;4.886;2023-08-17T13:01:12;12.70;;;9.13;;
1479;SDS011;732;51.698;4.886;2023-08-17T13:03:41;14.00;;;8.57;;
1479;SDS011;732;51.698;4.886;2023-08-17T13:06:09;14.63;;;9.10;;
1479;SDS011;732;51.698;4.886;2023-08-17T13:08:37;13.90;;;9.33;;
1479;SDS011;732;51.698;4.886;2023-08-17T13:11:07;15.27;;;9.43;;
1479;SDS011;732;51.698;4.886;2023-08-17T13:13:35;16.63;;;9.40;;
1479;SDS011;732;51.698;4.886;2023-08-17T13:16:03;15.20;;;9.57;;
1479;SDS011;732;51.698;4.886;2023-08-17T13:18:32;14.50;;;9.70;;
1479;SDS011;732;51.698;4.886;2023-08-17T13:21:00;14.00;;;9.03;;
1479;SDS011;732;51.698;4.886;2023-08-17T13:23:28;20.50;;;9.97;;
1479;SDS011;732;51.698;4.886;2023-08-17T13:25:57;13.70;;;10.47;;
1479;SDS011;732;51.698;4.886;2023-08-17T13:28:27;17.07;;;10.23;;
1479;SDS011;732;51.698;4.886;2023-08-17T13:30:55;18.40;;;10.00;;
1479;SDS011;732;51.698;4.886;2023-08-17T13:33:43;13.77;;;9.00;;
1479;SDS011;732;51.698;4.886;2023-08-17T13:36:12;16.03;;;9.33;;
1479;SDS011;732;51.698;4.886;2023-08-17T13:38:40;17.27;;;9.60;;
1479;SDS011;732;51.698;4.886;2023-08-17T13:41:08;16.70;;;10.03;;
1479;SDS011;732;51.698;4.886;2023-08-17T13:43:38;17.13;;;10.20;;
1479;SDS011;732;51.698;4.886;2023-08-17T13:46:06;15.67;;;9.10;;
1479;SDS011;732;51.698;4.886;2023-08-17T13:48:35;13.60;;;9.13;;
1479;SDS011;732;51.698;4.886;2023-08-17T13:51:05;12.80;;;9.40;;
1479;SDS011;732;51.698;4.886;2023-08-17T13:53:33;16.37;;;9.43;;
1479;SDS011;732;51.698;4.886;2023-08-17T13:56:01;16.10;;;9.50;;
1479;SDS011;732;51.698;4.886;2023-08-17T13:58:30;24.13;;;10.80;;
1479;SDS011;732;51.698;4.886;2023-08-17T14:01:00;18.20;;;9.40;;
1479;SDS011;732;51.698;4.886;2023-08-17T14:03:28;16.00;;;10.23;;
1479;SDS011;732;51.698;4.886;2023-08-17T14:05:57;16.90;;;9.63;;
1479;SDS011;732;51.698;4.886;2023-08-17T14:08:25;21.33;;;10.30;;
1479;SDS011;732;51.698;4.886;2023-08-17T14:10:54;19.40;;;9.37;;
1479;SDS011;732;51.698;4.886;2023-08-17T14:13:22;16.77;;;9.37;;
1479;SDS011;732;51.698;4.886;2023-08-17T14:15:50;15.90;;;8.97;;
1479;SDS011;732;51.698;4.886;2023-08-17T14:18:23;16.60;;;9.80;;
1479;SDS011;732;51.698;4.886;2023-08-17T14:20:52;16.60;;;10.27;;
1479;SDS011;732;51.698;4.886;2023-08-17T14:23:20;18.10;;;10.47;;
1479;SDS011;732;51.698;4.886;2023-08-17T14:25:48;21.13;;;11.30;;
1479;SDS011;732;51.698;4.886;2023-08-17T14:28:18;15.40;;;10.00;;
1479;SDS011;732;51.698;4.886;2023-08-17T14:30:46;19.23;;;9.60;;
1479;SDS011;732;51.698;4.886;2023-08-17T14:33:18;22.53;;;10.60;;
1479;SDS011;732;51.698;4.886;2023-08-17T14:35:48;18.23;;;10.23;;
1479;SDS011;732;51.698;4.886;2023-08-17T14:38:17;17.43;;;9.60;;
1479;SDS011;732;51.698;4.886;2023-08-17T14:40:47;13.77;;;10.17;;
1479;SDS011;732;51.698;4.886;2023-08-17T14:43:15;20.87;;;10.10;;
1479;SDS011;732;51.698;4.886;2023-08-17T14:45:44;24.03;;;11.13;;
1479;SDS011;732;51.698;4.886;2023-08-17T14:48:13;14.10;;;10.40;;
1479;SDS011;732;51.698;4.886;2023-08-17T14:50:41;17.00;;;10.07;;
1479;SDS011;732;51.698;4.886;2023-08-17T14:53:10;19.83;;;10.87;;
1479;SDS011;732;51.698;4.886;2023-08-17T14:55:39;19.17;;;11.20;;
1479;SDS011;732;51.698;4.886;2023-08-17T14:58:07;14.33;;;10.03;;
1479;SDS011;732;51.698;4.886;2023-08-17T15:00:35;16.03;;;10.37;;
1479;SDS011;732;51.698;4.886;2023-08-17T15:03:04;16.80;;;10.90;;
1479;SDS011;732;51.698;4.886;2023-08-17T15:05:32;15.00;;;10.50;;
1479;SDS011;732;51.698;4.886;2023-08-17T15:08:02;15.87;;;10.90;;
1479;SDS011;732;51.698;4.886;2023-08-17T15:10:34;12.10;;;10.40;;
1479;SDS011;732;51.698;4.886;2023-08-17T15:13:02;12.17;;;10.27;;
1479;SDS011;732;51.698;4.886;2023-08-17T15:15:36;11.30;;;9.60;;
1479;SDS011;732;51.698;4.886;2023-08-17T15:18:05;14.10;;;10.93;;
1479;SDS011;732;51.698;4.886;2023-08-17T15:20:34;14.37;;;9.60;;
1479;SDS011;732;51.698;4.886;2023-08-17T15:23:03;15.27;;;10.20;;
1479;SDS011;732;51.698;4.886;2023-08-17T15:25:32;12.40;;;9.83;;
1479;SDS011;732;51.698;4.886;2023-08-17T15:28:01;13.40;;;9.60;;
1479;SDS011;732;51.698;4.886;2023-08-17T15:30:30;16.00;;;9.50;;
1479;SDS011;732;51.698;4.886;2023-08-17T15:32:58;13.53;;;9.83;;
1479;SDS011;732;51.698;4.886;2023-08-17T15:35:27;14.70;;;10.67;;
1479;SDS011;732;51.698;4.886;2023-08-17T15:37:55;18.87;;;10.67;;
1479;SDS011;732;51.698;4.886;2023-08-17T15:40:23;13.73;;;10.30;;